sensor_id;sensor_type;location;lat;lon;timestamp;P1;durP1;ratioP1;P2;durP2;ratioP2
20857;SDS011;10589;53.636;10.012;2023-07-02T03:47:09;8.67;;;4.93;;
20857;SDS011;10589;53.636;10.012;2023-07-02T03:49:37;13.00;;;4.77;;
20857;SDS011;10589;53.636;10.012;2023-07-02T03:52:02;13.97;;;5.17;;
20857;SDS011;10589;53.636;10.012;2023-07-02T03:54:28;13.47;;;4.97;;
20857;SDS011;10589;53.636;10.012;2023-07-02T03:56:54;13.47;;;5.53;;
20857;SDS011;10589;53.636;10.012;2023-07-02T03:59:19;11.40;;;5.77;;
20857;SDS011;10589;53.636;10.012;2023-07-02T04:01:45;11.40;;;5.50;;
20857;SDS011;10589;53.636;10.012;2023-07-02T04:04:10;10.07;;;5.27;;
20857;SDS011;10589;53.636;10.012;2023-07-02T04:06:36;13.30;;;5.67;;
20857;SDS011;10589;53.636;10.012;2023-07-02T04:09:02;11.17;;;4.93;;
20857;SDS011;10589;53.636;10.012;2023-07-02T04:11:29;9.87;;;5.03;;
20857;SDS011;10589;53.636;10.012;2023-07-02T04:13:54;10.30;;;4.77;;
20857;SDS011;10589;53.636;10.012;2023-07-02T04:16:20;18.90;;;5.80;;
20857;SDS011;10589;53.636;10.012;2023-07-02T04:18:46;13.67;;;5.27;;
20857;SDS011;10589;53.636;10.012;2023-07-02T04:21:11;14.57;;;5.43;;
20857;SDS011;10589;53.636;10.012;2023-07-02T04:23:37;9.73;;;4.97;;
20857;SDS011;10589;53.636;10.012;2023-07-02T04:26:02;10.77;;;5.83;;
20857;SDS011;10589;53.636;10.012;2023-07-02T04:28:28;9.43;;;5.07;;
20857;SDS011;10589;53.636;10.012;2023-07-02T04:30:53;14.30;;;5.27;;
20857;SDS011;10589;53.636;10.012;2023-07-02T04:33:19;13.20;;;4.97;;
20857;SDS011;10589;53.636;10.012;2023-07-02T04:35:45;13.47;;;5.30;;
20857;SDS011;10589;53.636;10.012;2023-07-02T04:38:11;13.43;;;5.40;;
20857;SDS011;10589;53.636;10.012;2023-07-02T04:40:37;15.13;;;5.77;;
20857;SDS011;10589;53.636;10.012;2023-07-02T04:43:03;11.17;;;5.63;;
20857;SDS011;10589;53.636;10.012;2023-07-02T04:45:29;14.63;;;5.67;;
20857;SDS011;10589;53.636;10.012;2023-07-02T04:47:57;14.70;;;5.37;;
20857;SDS011;10589;53.636;10.012;2023-07-02T04:50:22;19.90;;;5.63;;
20857;SDS011;10589;53.636;10.012;2023-07-02T04:52:48;13.80;;;5.03;;
20857;SDS011;10589;53.636;10.012;2023-07-02T04:55:14;17.83;;;6.33;;
20857;SDS011;10589;53.636;10.012;2023-07-02T04:57:39;17.80;;;5.67;;
20857;SDS011;10589;53.636;10.012;2023-07-02T05:00:05;10.77;;;4.67;;
20857;SDS011;10589;53.636;10.012;2023-07-02T05:02:32;15.20;;;5.17;;
20857;SDS011;10589;53.636;10.012;2023-07-02T05:04:58;17.00;;;5.73;;
20857;SDS011;10589;53.636;10.012;2023-07-02T05:07:23;16.60;;;6.03;;
20857;SDS011;10589;53.636;10.012;2023-07-02T05:09:49;14.07;;;5.67;;
20857;SDS011;10589;53.636;10.012;2023-07-02T05:12:17;15.37;;;6.23;;
20857;SDS011;10589;53.636;10.012;2023-07-02T05:14:43;18.60;;;6.10;;
20857;SDS011;10589;53.636;10.012;2023-07-02T05:17:08;20.53;;;6.47;;
20857;SDS011;10589;53.636;10.012;2023-07-02T05:19:34;18.47;;;5.93;;
20857;SDS011;10589;53.636;10.012;2023-07-02T05:21:59;14.77;;;5.77;;
20857;SDS011;10589;53.636;10.012;2023-07-02T05:24:25;14.70;;;5.77;;
20857;SDS011;10589;53.636;10.012;2023-07-02T05:26:50;14.70;;;6.33;;
20857;SDS011;10589;53.636;10.012;2023-07-02T05:29:16;17.40;;;5.73;;
20857;SDS011;10589;53.636;10.012;2023-07-02T05:31:42;19.40;;;7.60;;
20857;SDS011;10589;53.636;10.012;2023-07-02T05:34:07;16.90;;;6.43;;
20857;SDS011;10589;53.636;10.012;2023-07-02T05:36:33;16.33;;;6.20;;
20857;SDS011;10589;53.636;10.012;2023-07-02T05:38:59;14.37;;;5.87;;
20857;SDS011;10589;53.636;10.012;2023-07-02T05:41:25;16.90;;;6.43;;
20857;SDS011;10589;53.636;10.012;2023-07-02T05:43:55;17.80;;;7.07;;
20857;SDS011;10589;53.636;10.012;2023-07-02T05:46:24;17.03;;;7.13;;
20857;SDS011;10589;53.636;10.012;2023-07-02T05:48:49;15.07;;;6.47;;
20857;SDS011;10589;53.636;10.012;2023-07-02T05:51:22;16.97;;;6.73;;
20857;SDS011;10589;53.636;10.012;2023-07-02T05:53:51;20.37;;;6.37;;
20857;SDS011;10589;53.636;10.012;2023-07-02T05:56:17;18.40;;;6.70;;
20857;SDS011;10589;53.636;10.012;2023-07-02T05:58:43;16.73;;;6.40;;
20857;SDS011;10589;53.636;10.012;2023-07-02T06:01:10;24.40;;;7.28;;
20857;SDS011;10589;53.636;10.012;2023-07-02T06:03:35;19.47;;;6.93;;
20857;SDS011;10589;53.636;10.012;2023-07-02T06:06:02;18.45;;;7.18;;
20857;SDS011;10589;53.636;10.012;2023-07-02T06:08:28;21.60;;;6.45;;
20857;SDS011;10589;53.636;10.012;2023-07-02T06:10:53;18.67;;;6.90;;
20857;SDS011;10589;53.636;10.012;2023-07-02T06:13:19;18.03;;;6.83;;
20857;SDS011;10589;53.636;10.012;2023-07-02T06:15:44;21.73;;;7.82;;
20857;SDS011;10589;53.636;10.012;2023-07-02T06:18:12;19.75;;;6.90;;
20857;SDS011;10589;53.636;10.012;2023-07-02T06:20:37;16.70;;;7.03;;
20857;SDS011;10589;53.636;10.012;2023-07-02T06:23:03;20.00;;;7.10;;
20857;SDS011;10589;53.636;10.012;2023-07-02T06:25:28;20.77;;;7.53;;
20857;SDS011;10589;53.636;10.012;2023-07-02T06:27:54;19.57;;;6.67;;
20857;SDS011;10589;53.636;10.012;2023-07-02T06:30:21;20.73;;;7.10;;
20857;SDS011;10589;53.636;10.012;2023-07-02T06:32:47;21.97;;;7.17;;
20857;SDS011;10589;53.636;10.012;2023-07-02T06:35:12;19.88;;;7.38;;
20857;SDS011;10589;53.636;10.012;2023-07-02T06:37:38;18.60;;;7.27;;
20857;SDS011;10589;53.636;10.012;2023-07-02T06:40:04;20.27;;;7.07;;
20857;SDS011;10589;53.636;10.012;2023-07-02T06:42:30;24.38;;;6.97;;
20857;SDS011;10589;53.636;10.012;2023-07-02T06:44:56;19.83;;;7.03;;
20857;SDS011;10589;53.636;10.012;2023-07-02T06:47:21;19.85;;;7.30;;
20857;SDS011;10589;53.636;10.012;2023-07-02T06:49:47;18.08;;;7.22;;
20857;SDS011;10589;53.636;10.012;2023-07-02T06:52:13;24.38;;;7.43;;
20857;SDS011;10589;53.636;10.012;2023-07-02T06:54:38;27.23;;;6.90;;
20857;SDS011;10589;53.636;10.012;2023-07-02T06:57:04;18.15;;;7.43;;
20857;SDS011;10589;53.636;10.012;2023-07-02T06:59:30;20.70;;;7.32;;
20857;SDS011;10589;53.636;10.012;2023-07-02T07:01:55;20.60;;;7.30;;
20857;SDS011;10589;53.636;10.012;2023-07-02T07:04:21;22.67;;;7.05;;
20857;SDS011;10589;53.636;10.012;2023-07-02T07:06:46;21.30;;;7.13;;
20857;SDS011;10589;53.636;10.012;2023-07-02T07:09:12;19.02;;;7.22;;
20857;SDS011;10589;53.636;10.012;2023-07-02T07:11:38;18.33;;;7.15;;
20857;SDS011;10589;53.636;10.012;2023-07-02T07:14:03;18.45;;;7.43;;
20857;SDS011;10589;53.636;10.012;2023-07-02T07:16:29;23.15;;;8.40;;
20857;SDS011;10589;53.636;10.012;2023-07-02T07:18:54;29.85;;;6.97;;
20857;SDS011;10589;53.636;10.012;2023-07-02T07:21:20;20.52;;;7.38;;
20857;SDS011;10589;53.636;10.012;2023-07-02T07:23:46;20.20;;;7.05;;
20857;SDS011;10589;53.636;10.012;2023-07-02T07:26:11;20.33;;;7.65;;
20857;SDS011;10589;53.636;10.012;2023-07-02T07:28:37;23.42;;;7.93;;
20857;SDS011;10589;53.636;10.012;2023-07-02T07:31:03;20.02;;;7.47;;
20857;SDS011;10589;53.636;10.012;2023-07-02T07:33:28;18.63;;;7.07;;
20857;SDS011;10589;53.636;10.012;2023-07-02T07:35:54;18.67;;;6.93;;
20857;SDS011;10589;53.636;10.012;2023-07-02T07:38:20;20.65;;;7.75;;
20857;SDS011;10589;53.636;10.012;2023-07-02T07:40:45;19.70;;;7.63;;
20857;SDS011;10589;53.636;10.012;2023-07-02T07:43:11;14.38;;;6.18;;
20857;SDS011;10589;53.636;10.012;2023-07-02T07:45:37;22.52;;;6.72;;
20857;SDS011;10589;53.636;10.012;2023-07-02T07:48:03;14.77;;;6.57;;
20857;SDS011;10589;53.636;10.012;2023-07-02T07:50:30;15.27;;;6.82;;
20857;SDS011;10589;53.636;10.012;2023-07-02T07:52:56;23.25;;;7.28;;
20857;SDS011;10589;53.636;10.012;2023-07-02T07:55:22;18.67;;;6.80;;
20857;SDS011;10589;53.636;10.012;2023-07-02T07:57:47;19.08;;;6.88;;
20857;SDS011;10589;53.636;10.012;2023-07-02T08:00:13;16.15;;;6.63;;
20857;SDS011;10589;53.636;10.012;2023-07-02T08:02:39;15.10;;;6.18;;
20857;SDS011;10589;53.636;10.012;2023-07-02T08:05:05;18.00;;;7.05;;
20857;SDS011;10589;53.636;10.012;2023-07-02T08:07:31;15.75;;;6.95;;
20857;SDS011;10589;53.636;10.012;2023-07-02T08:09:57;17.58;;;6.47;;
20857;SDS011;10589;53.636;10.012;2023-07-02T08:12:23;17.58;;;6.75;;
20857;SDS011;10589;53.636;10.012;2023-07-02T08:14:49;18.73;;;6.28;;
20857;SDS011;10589;53.636;10.012;2023-07-02T08:17:15;17.85;;;6.63;;
20857;SDS011;10589;53.636;10.012;2023-07-02T08:19:40;14.43;;;6.07;;
20857;SDS011;10589;53.636;10.012;2023-07-02T08:22:06;14.98;;;6.28;;
20857;SDS011;10589;53.636;10.012;2023-07-02T08:24:31;15.23;;;6.20;;
20857;SDS011;10589;53.636;10.012;2023-07-02T08:26:58;13.27;;;6.10;;
20857;SDS011;10589;53.636;10.012;2023-07-02T08:29:27;16.58;;;5.90;;
20857;SDS011;10589;53.636;10.012;2023-07-02T08:31:53;18.95;;;6.60;;
20857;SDS011;10589;53.636;10.012;2023-07-02T08:34:19;13.13;;;5.55;;
20857;SDS011;10589;53.636;10.012;2023-07-02T08:36:44;14.07;;;5.72;;
20857;SDS011;10589;53.636;10.012;2023-07-02T08:39:10;14.95;;;6.05;;
20857;SDS011;10589;53.636;10.012;2023-07-02T08:41:43;17.23;;;6.20;;
20857;SDS011;10589;53.636;10.012;2023-07-02T08:44:10;13.07;;;5.55;;
20857;SDS011;10589;53.636;10.012;2023-07-02T08:46:40;14.57;;;5.57;;
20857;SDS011;10589;53.636;10.012;2023-07-02T08:49:07;15.27;;;6.60;;
20857;SDS011;10589;53.636;10.012;2023-07-02T08:51:33;20.55;;;5.93;;
20857;SDS011;10589;53.636;10.012;2023-07-02T08:53:59;13.20;;;5.00;;
20857;SDS011;10589;53.636;10.012;2023-07-02T08:56:25;13.23;;;5.75;;
20857;SDS011;10589;53.636;10.012;2023-07-02T08:58:52;12.75;;;4.90;;
20857;SDS011;10589;53.636;10.012;2023-07-02T09:01:19;13.23;;;4.95;;
20857;SDS011;10589;53.636;10.012;2023-07-02T09:03:45;10.73;;;4.80;;
20857;SDS011;10589;53.636;10.012;2023-07-02T09:06:11;10.77;;;4.70;;
20857;SDS011;10589;53.636;10.012;2023-07-02T09:08:37;11.30;;;4.65;;
20857;SDS011;10589;53.636;10.012;2023-07-02T09:13:41;11.68;;;4.35;;
20857;SDS011;10589;53.636;10.012;2023-07-02T09:16:08;15.18;;;4.60;;
20857;SDS011;10589;53.636;10.012;2023-07-02T09:18:54;12.95;;;4.40;;
20857;SDS011;10589;53.636;10.012;2023-07-02T09:21:21;14.50;;;4.53;;
20857;SDS011;10589;53.636;10.012;2023-07-02T09:23:47;11.15;;;5.13;;
20857;SDS011;10589;53.636;10.012;2023-07-02T09:26:23;17.10;;;4.80;;
20857;SDS011;10589;53.636;10.012;2023-07-02T09:28:49;12.60;;;4.75;;
20857;SDS011;10589;53.636;10.012;2023-07-02T09:31:15;16.75;;;4.00;;
20857;SDS011;10589;53.636;10.012;2023-07-02T09:33:41;11.97;;;4.47;;
20857;SDS011;10589;53.636;10.012;2023-07-02T09:36:06;11.93;;;4.13;;
20857;SDS011;10589;53.636;10.012;2023-07-02T09:38:32;13.13;;;4.77;;
20857;SDS011;10589;53.636;10.012;2023-07-02T09:40:58;14.47;;;5.33;;
20857;SDS011;10589;53.636;10.012;2023-07-02T09:43:24;11.27;;;4.57;;
20857;SDS011;10589;53.636;10.012;2023-07-02T09:45:52;13.80;;;5.50;;
20857;SDS011;10589;53.636;10.012;2023-07-02T09:48:19;15.30;;;4.67;;
20857;SDS011;10589;53.636;10.012;2023-07-02T09:50:49;16.93;;;5.60;;
20857;SDS011;10589;53.636;10.012;2023-07-02T09:53:15;15.67;;;5.57;;
20857;SDS011;10589;53.636;10.012;2023-07-02T09:55:44;12.73;;;4.70;;
20857;SDS011;10589;53.636;10.012;2023-07-02T09:58:11;13.27;;;4.77;;
20857;SDS011;10589;53.636;10.012;2023-07-02T10:00:37;13.57;;;4.30;;
20857;SDS011;10589;53.636;10.012;2023-07-02T10:03:03;11.98;;;4.22;;
20857;SDS011;10589;53.636;10.012;2023-07-02T10:05:29;11.00;;;4.40;;
20857;SDS011;10589;53.636;10.012;2023-07-02T10:07:57;14.95;;;4.85;;
20857;SDS011;10589;53.636;10.012;2023-07-02T10:10:27;11.07;;;4.03;;
20857;SDS011;10589;53.636;10.012;2023-07-02T10:12:53;12.13;;;4.50;;
20857;SDS011;10589;53.636;10.012;2023-07-02T10:15:25;10.07;;;4.18;;
20857;SDS011;10589;53.636;10.012;2023-07-02T10:17:58;10.52;;;3.33;;
20857;SDS011;10589;53.636;10.012;2023-07-02T10:20:35;9.80;;;3.35;;
20857;SDS011;10589;53.636;10.012;2023-07-02T10:23:03;11.02;;;3.47;;
20857;SDS011;10589;53.636;10.012;2023-07-02T10:25:34;13.63;;;3.38;;
20857;SDS011;10589;53.636;10.012;2023-07-02T10:28:02;10.63;;;3.75;;
20857;SDS011;10589;53.636;10.012;2023-07-02T10:30:40;8.55;;;3.78;;
20857;SDS011;10589;53.636;10.012;2023-07-02T10:35:39;17.08;;;3.65;;
20857;SDS011;10589;53.636;10.012;2023-07-02T10:38:07;9.52;;;3.92;;
20857;SDS011;10589;53.636;10.012;2023-07-02T10:40:39;7.72;;;3.13;;
20857;SDS011;10589;53.636;10.012;2023-07-02T10:43:04;11.20;;;3.75;;
20857;SDS011;10589;53.636;10.012;2023-07-02T10:45:33;7.97;;;3.53;;
20857;SDS011;10589;53.636;10.012;2023-07-02T10:48:03;12.23;;;3.45;;
20857;SDS011;10589;53.636;10.012;2023-07-02T10:50:33;8.13;;;3.13;;
20857;SDS011;10589;53.636;10.012;2023-07-02T10:52:58;8.68;;;3.08;;
20857;SDS011;10589;53.636;10.012;2023-07-02T10:55:25;8.60;;;3.50;;
20857;SDS011;10589;53.636;10.012;2023-07-02T10:58:02;8.18;;;3.13;;
20857;SDS011;10589;53.636;10.012;2023-07-02T11:00:32;8.30;;;2.88;;
20857;SDS011;10589;53.636;10.012;2023-07-02T11:02:58;8.50;;;2.85;;
20857;SDS011;10589;53.636;10.012;2023-07-02T11:05:24;6.80;;;2.90;;
20857;SDS011;10589;53.636;10.012;2023-07-02T11:07:50;9.48;;;3.13;;
20857;SDS011;10589;53.636;10.012;2023-07-02T11:10:22;7.53;;;2.53;;
20857;SDS011;10589;53.636;10.012;2023-07-02T11:12:48;6.60;;;2.58;;
20857;SDS011;10589;53.636;10.012;2023-07-02T11:15:14;8.70;;;3.28;;
20857;SDS011;10589;53.636;10.012;2023-07-02T11:17:44;11.75;;;2.72;;
20857;SDS011;10589;53.636;10.012;2023-07-02T11:20:10;8.75;;;2.65;;
20857;SDS011;10589;53.636;10.012;2023-07-02T11:22:38;8.98;;;3.05;;
20857;SDS011;10589;53.636;10.012;2023-07-02T11:25:13;10.18;;;3.15;;
20857;SDS011;10589;53.636;10.012;2023-07-02T11:27:43;8.15;;;2.97;;
20857;SDS011;10589;53.636;10.012;2023-07-02T11:30:10;9.15;;;3.15;;
20857;SDS011;10589;53.636;10.012;2023-07-02T11:32:50;9.25;;;3.03;;
20857;SDS011;10589;53.636;10.012;2023-07-02T11:35:16;11.63;;;3.20;;
20857;SDS011;10589;53.636;10.012;2023-07-02T11:37:43;11.15;;;2.75;;
20857;SDS011;10589;53.636;10.012;2023-07-02T11:40:09;9.57;;;3.22;;
20857;SDS011;10589;53.636;10.012;2023-07-02T11:42:35;8.70;;;3.15;;
20857;SDS011;10589;53.636;10.012;2023-07-02T11:45:00;12.80;;;3.03;;
20857;SDS011;10589;53.636;10.012;2023-07-02T11:47:26;8.32;;;2.75;;
20857;SDS011;10589;53.636;10.012;2023-07-02T11:49:52;11.18;;;3.10;;
20857;SDS011;10589;53.636;10.012;2023-07-02T11:52:20;7.32;;;2.13;;
20857;SDS011;10589;53.636;10.012;2023-07-02T11:54:46;8.68;;;2.45;;
20857;SDS011;10589;53.636;10.012;2023-07-02T11:57:12;7.88;;;2.25;;
20857;SDS011;10589;53.636;10.012;2023-07-02T11:59:37;7.93;;;2.45;;
20857;SDS011;10589;53.636;10.012;2023-07-02T12:02:03;9.45;;;2.40;;
20857;SDS011;10589;53.636;10.012;2023-07-02T12:04:29;10.93;;;2.72;;
20857;SDS011;10589;53.636;10.012;2023-07-02T12:06:55;9.32;;;2.75;;
20857;SDS011;10589;53.636;10.012;2023-07-02T12:09:20;10.55;;;3.35;;
20857;SDS011;10589;53.636;10.012;2023-07-02T12:11:46;10.60;;;3.38;;
20857;SDS011;10589;53.636;10.012;2023-07-02T12:14:12;9.77;;;3.60;;
20857;SDS011;10589;53.636;10.012;2023-07-02T12:16:38;11.50;;;3.97;;
20857;SDS011;10589;53.636;10.012;2023-07-02T12:19:03;17.60;;;4.80;;
20857;SDS011;10589;53.636;10.012;2023-07-02T12:21:29;10.43;;;3.20;;
20857;SDS011;10589;53.636;10.012;2023-07-02T12:23:54;9.80;;;3.13;;
20857;SDS011;10589;53.636;10.012;2023-07-02T12:26:20;10.32;;;3.08;;
20857;SDS011;10589;53.636;10.012;2023-07-02T12:28:46;10.68;;;3.20;;
20857;SDS011;10589;53.636;10.012;2023-07-02T12:31:11;11.00;;;2.97;;
20857;SDS011;10589;53.636;10.012;2023-07-02T12:33:38;12.60;;;3.45;;
20857;SDS011;10589;53.636;10.012;2023-07-02T12:36:04;12.10;;;3.83;;
20857;SDS011;10589;53.636;10.012;2023-07-02T12:38:30;10.98;;;2.70;;
20857;SDS011;10589;53.636;10.012;2023-07-02T12:40:56;9.88;;;3.03;;
20857;SDS011;10589;53.636;10.012;2023-07-02T12:43:22;12.02;;;2.83;;
20857;SDS011;10589;53.636;10.012;2023-07-02T12:45:47;4.80;;;2.05;;
20857;SDS011;10589;53.636;10.012;2023-07-02T12:48:13;8.80;;;2.13;;
20857;SDS011;10589;53.636;10.012;2023-07-02T12:50:39;11.20;;;2.60;;
20857;SDS011;10589;53.636;10.012;2023-07-02T12:53:05;8.13;;;2.53;;
20857;SDS011;10589;53.636;10.012;2023-07-02T12:55:31;7.38;;;2.35;;
20857;SDS011;10589;53.636;10.012;2023-07-02T12:57:56;7.90;;;2.15;;
20857;SDS011;10589;53.636;10.012;2023-07-02T13:00:22;6.15;;;2.20;;
20857;SDS011;10589;53.636;10.012;2023-07-02T13:02:48;9.32;;;1.85;;
20857;SDS011;10589;53.636;10.012;2023-07-02T13:05:14;8.77;;;2.05;;
20857;SDS011;10589;53.636;10.012;2023-07-02T13:07:40;5.03;;;1.83;;
20857;SDS011;10589;53.636;10.012;2023-07-02T13:10:05;9.35;;;2.13;;
20857;SDS011;10589;53.636;10.012;2023-07-02T13:12:31;6.90;;;1.70;;
20857;SDS011;10589;53.636;10.012;2023-07-02T13:14:57;13.45;;;1.95;;
20857;SDS011;10589;53.636;10.012;2023-07-02T13:17:23;4.80;;;1.65;;
20857;SDS011;10589;53.636;10.012;2023-07-02T13:19:49;9.40;;;1.95;;
20857;SDS011;10589;53.636;10.012;2023-07-02T13:22:14;6.97;;;1.65;;
20857;SDS011;10589;53.636;10.012;2023-07-02T13:24:40;10.18;;;1.73;;
20857;SDS011;10589;53.636;10.012;2023-07-02T13:27:09;7.22;;;1.50;;
20857;SDS011;10589;53.636;10.012;2023-07-02T13:29:38;5.07;;;1.23;;
20857;SDS011;10589;53.636;10.012;2023-07-02T13:32:04;4.60;;;1.48;;
20857;SDS011;10589;53.636;10.012;2023-07-02T13:34:30;5.25;;;1.40;;
20857;SDS011;10589;53.636;10.012;2023-07-02T13:36:55;7.75;;;1.73;;
20857;SDS011;10589;53.636;10.012;2023-07-02T13:39:21;8.02;;;1.27;;
20857;SDS011;10589;53.636;10.012;2023-07-02T13:41:46;7.97;;;1.50;;
20857;SDS011;10589;53.636;10.012;2023-07-02T13:44:12;4.15;;;1.58;;
20857;SDS011;10589;53.636;10.012;2023-07-02T13:46:39;5.03;;;1.50;;
20857;SDS011;10589;53.636;10.012;2023-07-02T13:49:05;5.55;;;1.40;;
20857;SDS011;10589;53.636;10.012;2023-07-02T13:51:30;4.70;;;1.23;;
20857;SDS011;10589;53.636;10.012;2023-07-02T13:53:56;6.40;;;1.63;;
20857;SDS011;10589;53.636;10.012;2023-07-02T13:56:21;8.82;;;2.03;;
20857;SDS011;10589;53.636;10.012;2023-07-02T13:59:08;4.05;;;1.45;;
20857;SDS011;10589;53.636;10.012;2023-07-02T14:01:34;7.57;;;1.67;;
20857;SDS011;10589;53.636;10.012;2023-07-02T14:04:00;10.30;;;1.60;;
20857;SDS011;10589;53.636;10.012;2023-07-02T14:06:27;7.85;;;1.73;;
20857;SDS011;10589;53.636;10.012;2023-07-02T14:08:53;8.27;;;1.90;;
20857;SDS011;10589;53.636;10.012;2023-07-02T14:11:19;9.93;;;1.80;;
20857;SDS011;10589;53.636;10.012;2023-07-02T14:13:46;9.23;;;1.38;;
20857;SDS011;10589;53.636;10.012;2023-07-02T14:16:11;7.18;;;1.90;;
20857;SDS011;10589;53.636;10.012;2023-07-02T14:18:37;9.07;;;1.65;;
20857;SDS011;10589;53.636;10.012;2023-07-02T14:21:02;7.05;;;1.60;;
20857;SDS011;10589;53.636;10.012;2023-07-02T14:23:28;6.63;;;1.90;;
20857;SDS011;10589;53.636;10.012;2023-07-02T14:25:54;7.18;;;2.00;;
20857;SDS011;10589;53.636;10.012;2023-07-02T14:28:19;3.95;;;1.55;;
20857;SDS011;10589;53.636;10.012;2023-07-02T14:30:45;5.63;;;1.55;;
20857;SDS011;10589;53.636;10.012;2023-07-02T14:33:11;7.15;;;2.10;;
20857;SDS011;10589;53.636;10.012;2023-07-02T14:35:37;5.00;;;1.90;;
20857;SDS011;10589;53.636;10.012;2023-07-02T14:38:03;4.25;;;1.55;;
20857;SDS011;10589;53.636;10.012;2023-07-02T14:40:28;4.63;;;1.67;;
20857;SDS011;10589;53.636;10.012;2023-07-02T14:42:54;5.53;;;1.35;;
20857;SDS011;10589;53.636;10.012;2023-07-02T14:45:19;7.10;;;2.17;;
20857;SDS011;10589;53.636;10.012;2023-07-02T14:47:45;4.40;;;2.05;;
20857;SDS011;10589;53.636;10.012;2023-07-02T14:50:10;7.40;;;2.00;;
20857;SDS011;10589;53.636;10.012;2023-07-02T14:52:36;6.50;;;1.98;;
20857;SDS011;10589;53.636;10.012;2023-07-02T14:55:02;6.25;;;1.90;;
20857;SDS011;10589;53.636;10.012;2023-07-02T14:57:29;4.55;;;1.75;;
20857;SDS011;10589;53.636;10.012;2023-07-02T14:59:55;7.50;;;1.90;;
20857;SDS011;10589;53.636;10.012;2023-07-02T15:02:21;8.30;;;2.03;;
20857;SDS011;10589;53.636;10.012;2023-07-02T15:04:46;3.97;;;1.70;;
20857;SDS011;10589;53.636;10.012;2023-07-02T15:07:12;8.43;;;2.03;;
20857;SDS011;10589;53.636;10.012;2023-07-02T15:09:38;4.80;;;1.63;;
20857;SDS011;10589;53.636;10.012;2023-07-02T15:12:04;6.35;;;1.52;;
20857;SDS011;10589;53.636;10.012;2023-07-02T15:14:29;8.05;;;1.98;;
20857;SDS011;10589;53.636;10.012;2023-07-02T15:16:55;6.28;;;2.08;;
20857;SDS011;10589;53.636;10.012;2023-07-02T15:19:21;5.82;;;2.00;;
20857;SDS011;10589;53.636;10.012;2023-07-02T15:21:46;7.15;;;2.20;;
20857;SDS011;10589;53.636;10.012;2023-07-02T15:24:12;12.13;;;2.60;;
20857;SDS011;10589;53.636;10.012;2023-07-02T15:26:38;6.65;;;2.00;;
20857;SDS011;10589;53.636;10.012;2023-07-02T15:29:05;7.28;;;2.38;;
20857;SDS011;10589;53.636;10.012;2023-07-02T15:31:31;5.72;;;2.03;;
20857;SDS011;10589;53.636;10.012;2023-07-02T15:33:56;7.97;;;2.20;;
20857;SDS011;10589;53.636;10.012;2023-07-02T15:36:22;8.63;;;1.98;;
20857;SDS011;10589;53.636;10.012;2023-07-02T15:38:48;6.30;;;2.33;;
20857;SDS011;10589;53.636;10.012;2023-07-02T15:41:15;7.90;;;1.83;;
20857;SDS011;10589;53.636;10.012;2023-07-02T15:43:44;10.73;;;2.13;;
20857;SDS011;10589;53.636;10.012;2023-07-02T15:46:10;7.97;;;2.25;;
20857;SDS011;10589;53.636;10.012;2023-07-02T15:48:40;14.57;;;2.55;;
20857;SDS011;10589;53.636;10.012;2023-07-02T15:51:06;7.47;;;2.00;;
20857;SDS011;10589;53.636;10.012;2023-07-02T15:53:33;6.80;;;2.30;;
20857;SDS011;10589;53.636;10.012;2023-07-02T15:56:01;7.05;;;2.13;;
20857;SDS011;10589;53.636;10.012;2023-07-02T15:58:28;13.85;;;2.65;;
20857;SDS011;10589;53.636;10.012;2023-07-02T16:00:55;13.05;;;2.30;;
20857;SDS011;10589;53.636;10.012;2023-07-02T16:03:21;4.03;;;1.80;;
20857;SDS011;10589;53.636;10.012;2023-07-02T16:05:47;6.05;;;2.25;;
20857;SDS011;10589;53.636;10.012;2023-07-02T16:08:12;7.50;;;2.10;;
20857;SDS011;10589;53.636;10.012;2023-07-02T16:10:44;6.47;;;1.85;;
20857;SDS011;10589;53.636;10.012;2023-07-02T16:13:10;10.30;;;2.30;;
20857;SDS011;10589;53.636;10.012;2023-07-02T16:15:39;5.90;;;2.10;;
20857;SDS011;10589;53.636;10.012;2023-07-02T16:18:06;7.70;;;1.95;;
20857;SDS011;10589;53.636;10.012;2023-07-02T16:20:33;5.93;;;2.08;;
20857;SDS011;10589;53.636;10.012;2023-07-02T16:22:59;8.90;;;2.53;;
20857;SDS011;10589;53.636;10.012;2023-07-02T16:25:25;7.82;;;2.25;;
20857;SDS011;10589;53.636;10.012;2023-07-02T16:27:51;5.18;;;2.28;;
20857;SDS011;10589;53.636;10.012;2023-07-02T16:30:16;6.85;;;2.40;;
20857;SDS011;10589;53.636;10.012;2023-07-02T16:32:42;7.80;;;2.72;;
20857;SDS011;10589;53.636;10.012;2023-07-02T16:35:07;6.93;;;2.50;;
20857;SDS011;10589;53.636;10.012;2023-07-02T16:37:33;9.90;;;2.72;;
20857;SDS011;10589;53.636;10.012;2023-07-02T16:39:59;7.20;;;2.65;;
20857;SDS011;10589;53.636;10.012;2023-07-02T16:42:25;11.25;;;2.72;;
20857;SDS011;10589;53.636;10.012;2023-07-02T16:44:51;7.75;;;2.97;;
20857;SDS011;10589;53.636;10.012;2023-07-02T16:47:17;7.65;;;2.78;;
20857;SDS011;10589;53.636;10.012;2023-07-02T16:49:42;8.88;;;2.60;;
20857;SDS011;10589;53.636;10.012;2023-07-02T16:52:11;7.07;;;2.50;;
20857;SDS011;10589;53.636;10.012;2023-07-02T16:54:37;9.48;;;2.72;;
20857;SDS011;10589;53.636;10.012;2023-07-02T16:57:03;8.57;;;2.53;;
20857;SDS011;10589;53.636;10.012;2023-07-02T16:59:30;5.97;;;2.08;;
20857;SDS011;10589;53.636;10.012;2023-07-02T17:02:02;6.10;;;2.58;;
20857;SDS011;10589;53.636;10.012;2023-07-02T17:04:29;9.45;;;2.60;;
20857;SDS011;10589;53.636;10.012;2023-07-02T17:06:56;5.65;;;2.30;;
20857;SDS011;10589;53.636;10.012;2023-07-02T17:09:30;7.07;;;2.70;;
20857;SDS011;10589;53.636;10.012;2023-07-02T17:12:17;7.57;;;2.50;;
20857;SDS011;10589;53.636;10.012;2023-07-02T17:14:45;9.07;;;2.72;;
20857;SDS011;10589;53.636;10.012;2023-07-02T17:17:22;7.80;;;2.78;;
20857;SDS011;10589;53.636;10.012;2023-07-02T17:19:52;12.63;;;3.20;;
20857;SDS011;10589;53.636;10.012;2023-07-02T17:22:25;5.50;;;2.75;;
20857;SDS011;10589;53.636;10.012;2023-07-02T17:24:52;9.10;;;3.22;;
20857;SDS011;10589;53.636;10.012;2023-07-02T17:27:20;7.65;;;3.17;;
20857;SDS011;10589;53.636;10.012;2023-07-02T17:29:51;9.10;;;2.67;;
20857;SDS011;10589;53.636;10.012;2023-07-02T17:32:18;6.28;;;2.80;;
20857;SDS011;10589;53.636;10.012;2023-07-02T17:34:44;8.82;;;3.45;;
20857;SDS011;10589;53.636;10.012;2023-07-02T17:37:10;8.00;;;3.10;;
20857;SDS011;10589;53.636;10.012;2023-07-02T17:39:38;5.53;;;2.70;;
20857;SDS011;10589;53.636;10.012;2023-07-02T17:42:03;6.40;;;2.97;;
20857;SDS011;10589;53.636;10.012;2023-07-02T17:44:33;8.07;;;3.13;;
20857;SDS011;10589;53.636;10.012;2023-07-02T17:47:04;10.57;;;3.10;;
20857;SDS011;10589;53.636;10.012;2023-07-02T17:49:36;9.95;;;2.78;;
20857;SDS011;10589;53.636;10.012;2023-07-02T17:52:04;11.10;;;3.45;;
20857;SDS011;10589;53.636;10.012;2023-07-02T17:54:37;9.70;;;3.47;;
20857;SDS011;10589;53.636;10.012;2023-07-02T17:57:15;11.75;;;3.15;;
20857;SDS011;10589;53.636;10.012;2023-07-02T17:59:42;9.85;;;3.30;;
20857;SDS011;10589;53.636;10.012;2023-07-02T18:02:09;10.73;;;3.47;;
20857;SDS011;10589;53.636;10.012;2023-07-02T18:04:36;7.25;;;3.65;;
20857;SDS011;10589;53.636;10.012;2023-07-02T18:09:42;8.98;;;3.28;;
20857;SDS011;10589;53.636;10.012;2023-07-02T18:12:11;9.27;;;3.65;;
20857;SDS011;10589;53.636;10.012;2023-07-02T18:14:39;7.70;;;2.88;;
20857;SDS011;10589;53.636;10.012;2023-07-02T18:17:06;9.75;;;3.05;;
20857;SDS011;10589;53.636;10.012;2023-07-02T18:19:32;6.15;;;2.70;;